Portada
METAR-TAF:

METAR-TAF

Aeroports :

Winnemucca Municipal Airport

Winnemucca, Nevada, Estats Units d'Amèrica

latitud: 40-54-07N, longitud: 117-48-26W, altitud: 1311 m

Observació

L'informe es va fer fa 17 minuts, a les 16:56 UTC
Vent 5 kt del Nord/Nord-Est
Temperatura 4°C
Humitat 30%
Pressió 1031 hPa
Visibilitat: 16.1 km
Cel clar

METAR: KWMC 261656Z AUTO 03005KT 10SM CLR 04/M12 A3044 RMK AO2 SLP325 T00391122

Hora: 09:13 (17:13 UTC)

Pronòstic

L'informe es va fer fa 5 hores i 43 minuts, a les 11:30 UTC
Pronòstic vàlid del 26 a les 12 UTC al 27 a les 12 UTC
Vent 5 kt amb direcció variable
Visibilitat: 10 km
Núvols disperses a una alçada de 20000 ft

TAF: KWMC 261130Z 2612/2712 VRB05KT P6SM SCT200

Observacions i pronòstics meteorològics de més de 4000 aeroports (METAR i TAF).

Les estacions disponibles són els punts grocs i vermells al mapa.

Posi el ratolí al punt desitjat per veure el nom de l'estació.

Feu clic per veure les observacions i els pronòstics meteorològics.

Per canviar el mapa: feu clic els botons verds amb una creu de color negre per apropar; al botó verd amb un guió per allunyar la imatge; o en les fletxes verdes per a mapes adjacents.


METAR-TAF: